• Join FlightAware (Why Join?)
  • Login
  • US Flag 
08:57PM EST


 

Airport Tracker/Info


-or-


 

Live Flight TrackerFlight Track Log ✈ SWA350 ✈ 11-Apr-2013 ✈ KSAN - KSJC

Flight Track Log - Related Links

Times and Time Zones

All times are in EDT time to prevent confusion due to time zone crossing. See the SWA350 flight status page for this flight to view local times or setup timezone preferences in your user account.

Time Position Orientation Groundspeed Altitude Reporting Facility
EDT Latitude Longitude Course Direction KTS MPH feet Rate Location/Type
06:43PM 32.7667 -117.2667 297° West 232 267 3,100  Level Southern California TRACON
06:44PM 32.8192 -117.3447 309° West 258 297 7,400 3,600 Climbing Los Angeles Center
06:45PM 32.8633 -117.4189 305° West 270 311 11,200 2,760 Climbing Los Angeles Center
06:46PM 32.9242 -117.5081 309° West 342 394 13,200 2,760 Climbing Los Angeles Center
06:47PM 33.0303 -117.6014 324° Northwest 395 455 17,000 3,240 Climbing Los Angeles Center
06:48PM 33.0997 -117.7083 308° West 407 468 20,000 2,700 Climbing Los Angeles Center
06:49PM 33.1733 -117.8153 309° West 414 476 22,600 2,340 Climbing Los Angeles Center
06:50PM 33.2506 -117.9244 310° West 426 490 24,900 2,040 Climbing Los Angeles Center
06:51PM 33.3278 -118.0364 310° West 433 498 26,900 2,340 Climbing Los Angeles Center
06:52PM 33.4056 -118.1481 310° West 436 502 29,800 2,820 Climbing Los Angeles Center
06:53PM 33.4928 -118.2756 309° West 416 479 32,800 2,400 Climbing Los Angeles Center
06:54PM 33.5642 -118.3800 309° West 405 466 34,800 1,800 Climbing Los Angeles Center
06:55PM 33.6372 -118.4856 310° West 404 465 36,600 1,500 Climbing Los Angeles Center
06:56PM 33.7086 -118.5892 310° West 398 458 38,000 1,080 Climbing Los Angeles Center
06:57PM 33.7792 -118.6903 310° West 393 452 38,900 720 Climbing Los Angeles Center
06:58PM 33.8486 -118.7928 309° West 393 452 39,600 480 Climbing Los Angeles Center
06:59PM 33.9192 -118.8953 310° West 397 457 40,000 180 Climbing Los Angeles Center
07:00PM 34.0025 -119.0194 309° West 397 457 40,000  Level Los Angeles Center
07:01PM 34.0711 -119.1206 309° West 390 449 40,000  Level Los Angeles Center
07:02PM 34.1400 -119.2231 309° West 392 451 40,000  Level Los Angeles Center
07:03PM 34.2078 -119.3231 309° West 387 445 40,000  Level Los Angeles Center
07:04PM 34.2750 -119.4250 309° West 388 447 40,000  Level Los Angeles Center
07:05PM 34.3425 -119.5250 309° West 385 443 40,000  Level Los Angeles Center
07:07PM 34.4244 -119.6456 310° West 385 443 40,000  Level Los Angeles Center
07:08PM 34.4906 -119.7469 308° West 385 443 40,000  Level Los Angeles Center
07:09PM 34.5761 -119.8294 322° Northwest 397 457 40,000  Level Los Angeles Center
07:10PM 34.6758 -119.9092 327° Northwest 396 456 40,000  Level Los Angeles Center
07:11PM 34.7658 -119.9833 326° Northwest 393 452 40,000  Level Los Angeles Center
07:12PM 34.8553 -120.0575 326° Northwest 391 450 40,000  Level Los Angeles Center
07:13PM 34.9556 -120.1406 326° Northwest 391 450 40,000  Level Los Angeles Center
07:14PM 35.0453 -120.2147 326° Northwest 392 451 40,000  Level Los Angeles Center
07:15PM 35.1328 -120.2883 325° Northwest 388 447 40,000  Level Los Angeles Center
07:16PM 35.2211 -120.3622 326° Northwest 387 445 40,000  Level Los Angeles Center
07:17PM 35.3094 -120.4364 326° Northwest 387 445 40,000  Level Los Angeles Center
07:18PM 35.4131 -120.5267 325° Northwest 390 449 40,000  Level Oakland Center
07:19PM 35.5039 -120.6028 326° Northwest 390 449 40,000  Level Oakland Center
07:20PM 35.5933 -120.6794 325° Northwest 388 447 40,000 -300 Level Oakland Center
07:21PM 35.6833 -120.7558 325° Northwest 391 450 39,400 -1,500 Descending Oakland Center
07:22PM 35.7708 -120.8303 325° Northwest 385 443 37,000 -2,400 Descending Oakland Center
07:23PM 35.8586 -120.9053 325° Northwest 383 441 34,600 -2,460 Descending Oakland Center
07:24PM 35.9639 -120.9958 325° Northwest 384 442 32,000 -2,340 Descending Oakland Center
07:25PM 36.0511 -121.0708 325° Northwest 383 441 29,900 -2,100 Descending Oakland Center
07:26PM 36.1367 -121.1453 325° Northwest 377 434 27,800 -2,040 Descending Oakland Center
07:27PM 36.2197 -121.2172 325° Northwest 367 422 25,800 -1,980 Descending Oakland Center
07:28PM 36.3003 -121.2858 326° Northwest 355 409 23,800 -1,860 Descending Oakland Center
07:29PM 36.3775 -121.3522 325° Northwest 342 394 22,000 -1,860 Descending Oakland Center
07:30PM 36.4503 -121.4189 324° Northwest 329 379 20,100 -1,800 Descending Oakland Center
07:31PM 36.5233 -121.4800 326° Northwest 318 366 18,400 -2,220 Descending Oakland Center
07:32PM 36.6367 -121.5186 345° North 351 404 15,600 -2,640 Descending Oakland Center
07:33PM 36.7331 -121.5544 343° North 361 415 13,000 -2,160 Descending Oakland Center
07:34PM 36.8214 -121.5858 344° North 348 400 11,200 -1,680 Descending Oakland Center
07:35PM 36.9000 -121.6147 344° North 304 350 9,600 -1,560 Descending Oakland Center
07:36PM 36.9728 -121.6417 344° North 277 319 8,100 -1,500 Descending Oakland Center
07:37PM 37.0425 -121.6669 344° North 266 306 6,600 -1,500 Descending Oakland Center
07:38PM 37.1128 -121.6933 343° North 262 302 5,000 -840 Descending Oakland Center
07:39PM 37.1894 -121.7328 338° Northwest 257 296 4,900 -600 Descending Oakland Center
07:40PM 37.2319 -121.7875 314° West 233 268 3,800 -1,260 Descending Oakland Center
07:42PM 37.2769 -121.8325 321° Northwest 217 250 2,400 -1,140 Descending Oakland Center
07:43PM 37.3183 -121.8794 318° Northwest 208 239 1,500 -1,020 Descending Oakland Center
07:44PM 37.3456 -121.9097 319° Northwest 159 183 400 -1,080 Descending Oakland Center
07:46PM 37.3500 -121.9167 North  Level FlightAware Approximate
07:53PM 37.3627 -121.9291 North  Level Estimated